METAR Reports

 

KMRH - Beaufort, North Carolina, USA
Distance from station: E 8mi, 12km
Updated: Fri, 21-Sep-2018 3:58pm EDT

 
Barometer: 30.13 inHg , 1020.3 hPa
2018/09/21 19:58 KMRH 211958Z AUTO A3013 RMK AO2 SLP205 PWINO FZRANO $
KEWN - New Bern, North Carolina, USA
Distance from station: NW 33mi, 40km
Updated: Fri, 21-Sep-2018 3:54pm EDT
Few Clouds
Few Clouds
 Wind from varies
Wind: varies 3 mph , 6 km/h
Temperature: 82°F , 28°C
Heat Index: 84°F , 29°C
Dew Point: 66°F , 19°C
Humidity: 58%
Barometer: 30.14 inHg , 1020.7 hPa
Clouds: Few Clouds
Visibility: 10 miles , 16 km
Cloud details: Few Clouds 4100 ft
2018/09/21 19:54 KEWN 211954Z VRB03KT 10SM FEW041 28/19 A3014 RMK AO2 SLP206 T02780194
 
KPGV - Greenville, North Carolina, USA
Updated: Fri, 21-Sep-2018 4:30pm EDT
Partly Cloudy
Partly Cloudy
 Wind from NE
Wind: NE 5 mph , 7 km/h
Temperature: 82°F , 28°C
Heat Index: 84°F , 29°C
Dew Point: 64°F , 18°C
Humidity: 55%
Barometer: 30.14 inHg , 1020.7 hPa
Clouds: Partly Cloudy
Visibility: 10 miles , 16 km
Cloud details: Partly Cloudy 5500 ft
2018/09/21 20:30 KPGV 212030Z AUTO 04004KT 10SM SCT055 28/18 A3014 RMK AO2
KOAJ - Richlands, North Carolina, USA
Updated: Fri, 21-Sep-2018 3:56pm EDT
Mostly Cloudy
Mostly Cloudy
 Wind from ESE
Wind: ESE 5 mph , 7 km/h
Temperature: 84°F , 29°C
Heat Index: 86°F , 30°C
Dew Point: 66°F , 19°C
Humidity: 55%
Barometer: 30.13 inHg , 1020.3 hPa
Clouds: Mostly Cloudy
Visibility: 10 miles , 16 km
Cloud details: Mostly Cloudy 4900 ft
2018/09/21 19:56 KOAJ 211956Z AUTO 11004KT 10SM BKN049 29/19 A3013 RMK AO2 SLP206 T02940189
 
KISO - Kinston, North Carolina, USA
Distance from station: NW 73mi, 87km
Updated: Fri, 21-Sep-2018 3:56pm EDT
Mostly Cloudy
Mostly Cloudy
 Wind from SW
Wind: SW 3 mph , 6 km/h
Temperature: 84°F , 29°C
Heat Index: 85°F , 29°C
Dew Point: 64°F , 18°C
Humidity: 51%
Barometer: 30.14 inHg , 1020.7 hPa
Clouds: Mostly Cloudy
Visibility: 10 miles , 16 km
Cloud details: Mostly Cloudy 4200 ft
Mostly Cloudy 5000 ft
2018/09/21 19:56 KISO 211956Z 22003KT 10SM BKN042 BKN050 29/18 A3014
KHSE - Buxton, North Carolina, USA
Distance from station: NE 89mi, 102km
Updated: Fri, 21-Sep-2018 3:51pm EDT
Partly Cloudy
Partly Cloudy
 Wind from ENE
Wind: ENE 6 mph , 9 km/h
Temperature: 82°F , 28°C
Heat Index: 86°F , 30°C
Dew Point: 70°F , 21°C
Humidity: 66%
Barometer: 30.14 inHg , 1020.7 hPa
Clouds: Partly Cloudy
Visibility: 10 miles , 16 km
Cloud details: Partly Cloudy 2400 ft
2018/09/21 19:51 KHSE 211951Z AUTO 06005KT 10SM SCT024 28/21 A3014 RMK AO2 SLP204 T02780211
 
KNCA - Jacksonville, North Carolina, USA
Distance from station: SW 48mi, 60km
Updated: Fri, 21-Sep-2018 3:56pm EDT
Few Clouds
Few Clouds
 Wind from S
Wind: S 6 mph , 9 km/h
Temperature: 84°F , 29°C
Heat Index: 86°F , 30°C
Dew Point: 66°F , 19°C
Humidity: 55%
Barometer: 30.12 inHg , 1020 hPa
Clouds: Few Clouds
Visibility: 10 miles , 16 km
Cloud details: Few Clouds 5000 ft
2018/09/21 19:56 KNCA 211956Z 18005KT 10SM FEW050 29/19 A3012 RMK AO2 SLP200 T02890194
KNKT - Cherry Point, North Carolina, USA
Distance from station: NW 9mi, 12km
Updated: Fri, 21-Sep-2018 3:56pm EDT
Few Clouds
Few Clouds
 Wind from ENE
Wind: ENE 9 mph , 15 km/h
Temperature: 84°F , 29°C
Heat Index: 86°F , 30°C
Dew Point: 66°F , 19°C
Humidity: 55%
Barometer: 30.12 inHg , 1020 hPa
Clouds: Few Clouds
Visibility: 10 miles , 16 km
Cloud details: Few Clouds 5000 ft
2018/09/21 19:56 KNKT 211956Z 06008KT 10SM FEW050 29/19 A3012 RMK AO2 SLP200 T02890194
 
KOCW - Washington, North Carolina, USA
Distance from station: N 73mi, 87km
Updated: Fri, 21-Sep-2018 4:25pm EDT
Mostly Cloudy
Mostly Cloudy
 Wind from SSE
Wind: SSE 5 mph , 7 km/h
Temperature: 84°F , 29°C
Heat Index: 85°F , 29°C
Dew Point: 64°F , 18°C
Humidity: 51%
Barometer: 30.13 inHg , 1020.3 hPa
Clouds: Mostly Cloudy
Visibility: 10 miles , 16 km
Cloud details: Mostly Cloudy 4400 ft
2018/09/21 20:25 KOCW 212025Z AUTO 16004KT 10SM BKN044 29/18 A3013 RMK AO2 T02850181
KDPL - Kenansville, North Carolina, USA
Distance from station: W 86mi, 98km
Updated: Fri, 21-Sep-2018 4:25pm EDT
Overcast
Overcast
 Wind from SE
Wind: SE 5 mph , 7 km/h
Temperature: 82°F , 28°C
Heat Index: 84°F , 29°C
Dew Point: 64°F , 18°C
Humidity: 55%
Barometer: 30.13 inHg , 1020.3 hPa
Clouds: Overcast
Visibility: 10 miles , 16 km
Cloud details: Overcast 5000 ft
2018/09/21 20:25 KDPL 212025Z AUTO 13004KT 10SM OVC050 28/18 A3013 RMK AO2
 
KMQI - Manteo, North Carolina, USA
Updated: Fri, 21-Sep-2018 4:20pm EDT
Clear
Clear
 Wind from E
Wind: E 8 mph , 13 km/h
Temperature: 79°F , 26°C
Dew Point: 66°F , 19°C
Humidity: 65%
Barometer: 30.15 inHg , 1021 hPa
Clouds: Clear
Visibility: 10 miles , 16 km
2018/09/21 20:20 KMQI 212020Z AUTO 09007KT 10SM CLR 26/19 A3015 RMK AO2 T02590192
KFFA - Kill Devil Hills, North Carolina, USA
Updated: Fri, 21-Sep-2018 4:25pm EDT
Clear
Clear
 Wind from calm
Wind: Calm
Temperature: 79°F , 26°C
Dew Point: 66°F , 19°C
Humidity: 65%
Barometer: 30.14 inHg , 1020.7 hPa
Clouds: Clear
Visibility: 10 miles , 16 km
2018/09/21 20:25 KFFA 212025Z AUTO 00000KT 10SM CLR 26/19 A3014 RMK AO2 T02560186
 
KILM - Wilmington, North Carolina, USA
Updated: Fri, 21-Sep-2018 3:53pm EDT
Overcast
Overcast
 Wind from SE
Wind: SE 8 mph , 13 km/h
Temperature: 82°F , 28°C
Heat Index: 83°F , 28°C
Dew Point: 63°F , 17°C
Humidity: 51%
Barometer: 30.13 inHg , 1020.3 hPa
Clouds: Overcast
Visibility: 10 miles , 16 km
Cloud details: Overcast 5000 ft
2018/09/21 19:53 KILM 211953Z 14007KT 10SM OVC050 28/17 A3013 RMK AO2 SLP203 T02780167
KRDU - Raleigh, North Carolina, USA
Updated: Fri, 21-Sep-2018 3:51pm EDT
Mostly Cloudy
Mostly Cloudy
 Wind from SE
Wind: SE 7 mph , 11 km/h
Temperature: 81°F , 27°C
Heat Index: 85°F , 29°C
Dew Point: 70°F , 21°C
Humidity: 70%
Barometer: 30.14 inHg , 1020.7 hPa
Clouds: Mostly Cloudy
Visibility: 10 miles , 16 km
Cloud details: Mostly Cloudy 3000 ft
2018/09/21 19:51 KRDU 211951Z 14006KT 10SM BKN030 27/21 A3014 RMK AO2 SLP200 T02720206